createdAt,value
2019-05-29T00:00:36.245Z,16.65
2019-05-29T00:03:10.597Z,18.98
2019-05-29T00:05:44.677Z,20.62
2019-05-29T00:08:18.776Z,13.72
2019-05-29T00:10:52.619Z,17.17
2019-05-29T00:13:26.693Z,17.65
2019-05-29T00:16:00.782Z,15.30
2019-05-29T00:18:35.008Z,19.80
2019-05-29T00:21:11.553Z,15.68
2019-05-29T00:23:45.175Z,15.55
2019-05-29T00:26:19.426Z,21.87
2019-05-29T00:28:53.373Z,20.80
2019-05-29T00:31:27.718Z,16.12
2019-05-29T00:34:01.782Z,16.15
2019-05-29T00:36:35.617Z,17.17
2019-05-29T00:39:10.841Z,16.65
2019-05-29T00:41:44.845Z,17.90
2019-05-29T00:44:33.620Z,19.00
2019-05-29T00:46:55.125Z,16.70
2019-05-29T00:49:29.267Z,18.90
2019-05-29T00:52:03.354Z,17.50
2019-05-29T00:54:37.725Z,17.62
2019-05-29T00:57:12.982Z,22.85
2019-05-29T00:59:47.536Z,19.42
2019-05-29T01:02:21.829Z,17.23
2019-05-29T01:04:55.993Z,18.60
2019-05-29T01:07:30.285Z,18.95
2019-05-29T01:10:04.525Z,19.55
2019-05-29T01:12:38.986Z,20.02
2019-05-29T01:15:13.421Z,17.77
2019-05-29T01:17:47.573Z,20.23
2019-05-29T01:20:22.038Z,18.60
2019-05-29T01:22:56.361Z,22.85
2019-05-29T01:25:30.722Z,25.92
2019-05-29T01:28:04.747Z,24.52
2019-05-29T01:30:40.432Z,22.45
2019-05-29T01:33:17.527Z,21.35
2019-05-29T01:35:50.642Z,21.90
2019-05-29T01:38:24.744Z,21.15
2019-05-29T01:40:58.921Z,21.45
2019-05-29T01:43:34.311Z,20.05
2019-05-29T01:46:08.621Z,21.68
2019-05-29T01:48:43.093Z,22.90
2019-05-29T01:51:17.501Z,23.65
2019-05-29T01:53:51.747Z,22.73
2019-05-29T01:56:25.810Z,31.70
2019-05-29T01:59:00.031Z,29.30
2019-05-29T02:01:34.144Z,27.90
2019-05-29T02:04:08.461Z,24.60
2019-05-29T02:06:42.751Z,29.82
2019-05-29T02:09:17.919Z,27.85
2019-05-29T02:11:52.055Z,30.92
2019-05-29T02:14:26.865Z,24.85
2019-05-29T02:17:01.116Z,25.57
2019-05-29T02:19:34.888Z,28.27
2019-05-29T02:22:09.161Z,27.20
2019-05-29T02:24:43.491Z,24.63
2019-05-29T02:27:17.613Z,31.45
2019-05-29T02:29:51.592Z,28.95
2019-05-29T02:32:25.742Z,27.98
2019-05-29T02:35:00.011Z,26.27
2019-05-29T02:37:33.889Z,29.80
2019-05-29T02:40:08.335Z,29.75
2019-05-29T02:42:42.317Z,28.73
2019-05-29T02:45:16.784Z,26.70
2019-05-29T02:47:50.792Z,29.20
2019-05-29T02:50:26.579Z,29.77
2019-05-29T02:53:00.781Z,30.70
2019-05-29T02:55:35.057Z,29.25
2019-05-29T02:58:09.259Z,28.70
2019-05-29T03:00:56.230Z,27.60
2019-05-29T03:03:38.009Z,30.55
2019-05-29T03:06:06.645Z,30.50
2019-05-29T03:08:41.201Z,26.15
2019-05-29T03:11:15.529Z,31.62
2019-05-29T03:13:49.981Z,29.18
2019-05-29T03:16:26.119Z,28.15
2019-05-29T03:19:00.607Z,28.32
2019-05-29T03:21:34.961Z,32.17
2019-05-29T03:24:09.445Z,34.43
2019-05-29T03:26:43.650Z,27.80
2019-05-29T03:29:18.038Z,30.85
2019-05-29T03:31:52.453Z,28.35
2019-05-29T03:34:31.044Z,29.35
2019-05-29T03:37:03.329Z,30.85
2019-05-29T03:39:38.598Z,30.82
2019-05-29T03:42:12.732Z,29.00
2019-05-29T03:44:47.205Z,29.02
2019-05-29T03:47:21.455Z,29.35
2019-05-29T03:49:56.179Z,30.65
2019-05-29T03:52:32.515Z,27.32
2019-05-29T03:55:06.676Z,25.37
2019-05-29T03:57:41.031Z,35.55
2019-05-29T04:00:15.577Z,29.55
2019-05-29T04:02:49.897Z,31.48
2019-05-29T04:05:24.367Z,34.45
2019-05-29T04:07:58.576Z,39.30
2019-05-29T04:10:35.490Z,49.15
2019-05-29T04:13:10.203Z,44.45
2019-05-29T04:15:44.560Z,38.65
2019-05-29T04:18:21.502Z,49.50
2019-05-29T04:20:56.052Z,49.80
2019-05-29T04:23:34.053Z,43.70
2019-05-29T04:26:08.533Z,41.63
2019-05-29T04:28:43.179Z,50.30
2019-05-29T04:31:17.383Z,41.00
2019-05-29T04:33:51.663Z,44.55
2019-05-29T04:36:25.973Z,43.95
2019-05-29T04:39:00.359Z,40.43
2019-05-29T04:41:36.884Z,34.67
2019-05-29T04:44:11.113Z,32.88
2019-05-29T04:46:45.459Z,34.18
2019-05-29T04:49:20.524Z,35.48
2019-05-29T04:51:55.116Z,36.10
2019-05-29T04:54:29.362Z,28.92
2019-05-29T04:57:03.600Z,29.15
2019-05-29T04:59:39.174Z,29.35
2019-05-29T05:02:13.199Z,30.55
2019-05-29T05:04:47.221Z,29.63
2019-05-29T05:07:21.456Z,36.28
2019-05-29T05:09:55.673Z,46.63
2019-05-29T05:12:33.528Z,43.08
2019-05-29T05:15:08.571Z,38.38
2019-05-29T05:17:42.806Z,206.70
2019-05-29T05:20:17.076Z,66.92
2019-05-29T05:22:50.892Z,89.42
2019-05-29T05:25:25.182Z,66.85
2019-05-29T05:27:59.370Z,70.87
2019-05-29T05:30:34.800Z,54.73
2019-05-29T05:33:09.054Z,51.98
2019-05-29T05:35:43.289Z,56.10
2019-05-29T05:38:17.507Z,44.70
2019-05-29T05:40:51.675Z,48.42
2019-05-29T05:43:26.059Z,38.02
2019-05-29T05:46:00.392Z,49.70
2019-05-29T05:48:35.126Z,39.38
2019-05-29T05:51:11.287Z,48.17
2019-05-29T05:53:46.410Z,42.85
2019-05-29T05:56:20.959Z,44.15
2019-05-29T05:58:54.808Z,40.33
2019-05-29T06:01:29.133Z,44.38
2019-05-29T06:04:03.348Z,52.10
2019-05-29T06:06:38.117Z,44.63
2019-05-29T06:09:12.354Z,41.10
2019-05-29T06:11:46.785Z,46.00
2019-05-29T06:14:21.137Z,37.20
2019-05-29T06:16:55.473Z,46.90
2019-05-29T06:19:29.776Z,43.08
2019-05-29T06:22:03.913Z,49.55
2019-05-29T06:24:38.889Z,50.38
2019-05-29T06:27:13.318Z,39.03
2019-05-29T06:29:47.723Z,45.60
2019-05-29T06:32:21.928Z,36.17
2019-05-29T06:34:56.114Z,36.50
2019-05-29T06:37:31.566Z,33.02
2019-05-29T06:40:07.682Z,30.95
2019-05-29T06:42:42.283Z,31.30
2019-05-29T06:45:21.693Z,31.05
2019-05-29T06:47:55.931Z,32.75
2019-05-29T06:50:30.403Z,33.02
2019-05-29T06:53:05.199Z,29.27
2019-05-29T06:55:39.974Z,35.80
2019-05-29T06:58:15.357Z,31.68
2019-05-29T07:00:49.998Z,30.05
2019-05-29T07:03:24.208Z,32.75
2019-05-29T07:05:58.400Z,30.85
2019-05-29T07:08:39.057Z,24.72
2019-05-29T07:11:08.922Z,24.25
2019-05-29T07:13:45.959Z,25.70
2019-05-29T07:16:18.952Z,29.77
2019-05-29T07:19:23.906Z,26.77
2019-05-29T07:21:29.254Z,21.70
2019-05-29T07:24:03.429Z,36.05
2019-05-29T07:26:38.934Z,28.10
2019-05-29T07:29:13.561Z,23.45
2019-05-29T07:31:47.751Z,26.87
2019-05-29T07:34:22.117Z,27.15
2019-05-29T07:36:56.246Z,24.10
2019-05-29T07:39:30.609Z,23.40
2019-05-29T07:42:04.941Z,24.12
2019-05-29T07:44:39.975Z,34.80
2019-05-29T07:47:14.378Z,28.42
2019-05-29T07:49:50.171Z,25.20
2019-05-29T07:52:24.755Z,22.32
2019-05-29T07:54:58.707Z,25.10
2019-05-29T07:57:33.087Z,25.02
2019-05-29T08:00:10.617Z,21.45
2019-05-29T08:02:47.581Z,35.30
2019-05-29T08:05:22.234Z,67.32
2019-05-29T08:07:56.550Z,73.07
2019-05-29T08:10:30.909Z,61.05
2019-05-29T08:13:04.873Z,54.13
2019-05-29T08:15:55.311Z,52.55
2019-05-29T08:18:14.946Z,49.98
2019-05-29T08:20:50.265Z,44.15
2019-05-29T08:23:24.484Z,36.40
2019-05-29T08:25:58.838Z,38.33
2019-05-29T08:28:32.693Z,35.70
2019-05-29T08:31:06.836Z,46.40
2019-05-29T08:33:41.177Z,39.35
2019-05-29T08:36:15.210Z,31.50
2019-05-29T08:38:49.373Z,30.88
2019-05-29T08:41:24.174Z,26.07
2019-05-29T08:43:58.683Z,27.62
2019-05-29T08:46:33.572Z,28.75
2019-05-29T08:49:07.917Z,24.15
2019-05-29T08:51:42.090Z,25.40
2019-05-29T08:54:23.969Z,25.88
2019-05-29T08:56:55.428Z,26.55
2019-05-29T08:59:29.907Z,28.80
2019-05-29T09:02:04.100Z,27.37
2019-05-29T09:04:38.394Z,24.63
2019-05-29T09:07:16.340Z,24.52
2019-05-29T09:09:51.256Z,26.10
2019-05-29T09:12:25.599Z,23.38
2019-05-29T09:15:00.204Z,26.12
2019-05-29T09:17:36.125Z,22.60
2019-05-29T09:20:26.142Z,25.92
2019-05-29T09:22:48.007Z,21.05
2019-05-29T09:25:23.223Z,23.67
2019-05-29T09:27:57.518Z,24.63
2019-05-29T09:30:31.765Z,26.15
2019-05-29T09:33:06.424Z,28.52
2019-05-29T09:35:41.073Z,29.63
2019-05-29T09:38:16.760Z,24.30
2019-05-29T09:40:52.968Z,27.52
2019-05-29T09:43:30.688Z,25.50
2019-05-29T09:46:05.542Z,15.95
2019-05-29T09:48:49.802Z,18.15
2019-05-29T09:51:21.204Z,20.27
2019-05-29T09:53:57.250Z,16.60
2019-05-29T09:56:32.253Z,15.85
2019-05-29T09:59:06.704Z,16.77
2019-05-29T10:01:41.278Z,20.48
2019-05-29T10:04:15.821Z,13.53
2019-05-29T10:06:50.315Z,13.13
2019-05-29T10:09:24.890Z,15.10
2019-05-29T10:12:03.302Z,13.62
2019-05-29T10:14:35.477Z,17.80
2019-05-29T10:17:12.762Z,14.33
2019-05-29T10:19:48.137Z,20.82
2019-05-29T10:22:22.744Z,15.90
2019-05-29T10:24:58.099Z,36.15
2019-05-29T10:27:33.092Z,21.90
2019-05-29T10:30:08.253Z,16.85
2019-05-29T10:32:44.399Z,17.15
2019-05-29T10:35:18.813Z,19.75
2019-05-29T10:37:53.152Z,15.15
2019-05-29T10:40:27.913Z,12.88
2019-05-29T10:43:03.021Z,12.05
2019-05-29T10:45:37.502Z,12.37
2019-05-29T10:48:11.907Z,12.10
2019-05-29T10:50:50.461Z,20.55
2019-05-29T10:53:22.724Z,10.72
2019-05-29T10:56:00.225Z,13.78
2019-05-29T10:58:47.993Z,15.50
2019-05-29T11:01:11.024Z,13.22
2019-05-29T11:03:45.568Z,11.35
2019-05-29T11:06:19.729Z,9.93
2019-05-29T11:08:54.252Z,14.75
2019-05-29T11:11:28.378Z,8.90
2019-05-29T11:14:02.538Z,10.65
2019-05-29T11:16:39.690Z,9.53
2019-05-29T11:19:14.025Z,9.80
2019-05-29T11:21:49.651Z,9.33
2019-05-29T11:24:25.092Z,12.10
2019-05-29T11:26:59.537Z,9.85
2019-05-29T11:29:33.659Z,7.40
2019-05-29T11:32:08.437Z,11.40
2019-05-29T11:34:42.561Z,8.68
2019-05-29T11:37:17.383Z,9.20
2019-05-29T11:39:52.584Z,13.18
2019-05-29T11:42:28.101Z,7.92
2019-05-29T11:45:03.815Z,11.83
2019-05-29T11:47:38.342Z,8.38
2019-05-29T11:50:19.707Z,12.93
2019-05-29T11:52:52.326Z,6.90
2019-05-29T11:55:26.987Z,11.22
2019-05-29T11:58:02.032Z,8.90
2019-05-29T12:00:36.409Z,9.40
2019-05-29T12:03:10.930Z,9.93
2019-05-29T12:05:44.892Z,18.77
2019-05-29T12:08:19.243Z,15.25
2019-05-29T12:10:53.463Z,15.93
2019-05-29T12:13:28.196Z,17.27
2019-05-29T12:16:02.128Z,14.63
2019-05-29T12:18:36.250Z,10.13
2019-05-29T12:21:10.543Z,10.85
2019-05-29T12:23:45.316Z,9.15
2019-05-29T12:26:48.536Z,14.70
2019-05-29T12:29:24.853Z,13.38
2019-05-29T12:31:58.979Z,9.10
2019-05-29T12:34:36.073Z,10.60
2019-05-29T12:37:10.100Z,16.52
2019-05-29T12:39:44.163Z,19.60
2019-05-29T12:42:18.049Z,26.23
2019-05-29T12:44:51.786Z,21.68
2019-05-29T12:47:25.784Z,13.43
2019-05-29T12:50:02.543Z,19.55
2019-05-29T12:52:36.740Z,15.43
2019-05-29T12:55:11.236Z,18.73
2019-05-29T12:57:45.528Z,26.25
2019-05-29T13:00:19.813Z,16.05
2019-05-29T13:02:54.449Z,18.98
2019-05-29T13:05:28.954Z,18.90
2019-05-29T13:08:03.602Z,24.35
2019-05-29T13:10:38.859Z,15.70
2019-05-29T13:13:12.823Z,20.02
2019-05-29T13:15:46.880Z,17.73
2019-05-29T13:18:22.856Z,21.07
2019-05-29T13:20:56.800Z,18.62
2019-05-29T13:23:44.304Z,20.30
2019-05-29T13:26:06.729Z,17.62
2019-05-29T13:28:40.784Z,21.40
2019-05-29T13:31:14.958Z,20.75
2019-05-29T13:33:48.933Z,19.92
2019-05-29T13:36:22.801Z,25.97
2019-05-29T13:38:58.033Z,21.62
2019-05-29T13:41:32.177Z,27.58
2019-05-29T13:44:07.012Z,21.90
2019-05-29T13:46:41.262Z,26.07
2019-05-29T13:49:15.222Z,24.47
2019-05-29T13:51:49.209Z,22.75
2019-05-29T13:54:23.287Z,20.15
2019-05-29T13:56:58.998Z,23.65
2019-05-29T13:59:33.093Z,26.23
2019-05-29T14:02:08.682Z,21.33
2019-05-29T14:04:43.356Z,18.98
2019-05-29T14:07:17.478Z,19.23
2019-05-29T14:09:51.650Z,24.65
2019-05-29T14:12:25.647Z,22.00
2019-05-29T14:14:59.911Z,24.55
2019-05-29T14:17:34.879Z,17.57
2019-05-29T14:20:09.875Z,24.98
2019-05-29T14:22:43.876Z,26.25
2019-05-29T14:25:18.348Z,29.23
2019-05-29T14:27:52.341Z,31.75
2019-05-29T14:30:26.479Z,28.87
2019-05-29T14:33:02.183Z,33.63
2019-05-29T14:35:35.817Z,33.18
2019-05-29T14:38:14.373Z,32.95
2019-05-29T14:40:45.768Z,29.95
2019-05-29T14:43:20.130Z,30.32
2019-05-29T14:45:54.300Z,30.00
2019-05-29T14:48:28.571Z,31.12
2019-05-29T14:51:03.607Z,38.80
2019-05-29T14:53:38.403Z,37.23
2019-05-29T14:56:12.797Z,33.50
2019-05-29T14:58:46.888Z,37.13
2019-05-29T15:01:21.203Z,35.48
2019-05-29T15:03:54.868Z,47.67
2019-05-29T15:06:28.507Z,60.78
2019-05-29T15:09:03.617Z,58.80
2019-05-29T15:11:37.258Z,67.58
2019-05-29T15:14:12.322Z,62.70
2019-05-29T15:16:46.526Z,72.55
2019-05-29T15:19:20.515Z,60.52
2019-05-29T15:21:54.555Z,55.58
2019-05-29T15:24:28.598Z,58.00
2019-05-29T15:27:03.013Z,50.55
2019-05-29T15:29:37.166Z,63.13
2019-05-29T15:32:12.458Z,60.38
2019-05-29T15:34:46.631Z,52.90
2019-05-29T15:37:20.670Z,55.78
2019-05-29T15:39:54.477Z,60.05
2019-05-29T15:42:28.518Z,60.50
2019-05-29T15:45:02.699Z,64.92
2019-05-29T15:47:36.741Z,62.88
2019-05-29T15:50:13.409Z,76.02
2019-05-29T15:52:47.570Z,80.57
2019-05-29T15:55:32.103Z,78.52
2019-05-29T15:57:57.879Z,71.60
2019-05-29T16:00:31.696Z,70.22
2019-05-29T16:03:05.625Z,75.30
2019-05-29T16:05:39.450Z,75.50
2019-05-29T16:08:14.044Z,75.57
2019-05-29T16:10:47.882Z,81.90
2019-05-29T16:13:21.965Z,74.45
2019-05-29T16:15:56.110Z,73.80
2019-05-29T16:18:29.973Z,95.92
2019-05-29T16:21:03.759Z,78.70
2019-05-29T16:23:37.769Z,74.75
2019-05-29T16:26:13.025Z,76.35
2019-05-29T16:28:47.186Z,76.90
2019-05-29T16:31:21.343Z,73.00
2019-05-29T16:33:55.477Z,72.40
2019-05-29T16:36:29.362Z,71.60
2019-05-29T16:39:03.962Z,69.53
2019-05-29T16:41:40.025Z,64.03
2019-05-29T16:44:14.193Z,68.70
2019-05-29T16:46:48.238Z,64.77
2019-05-29T16:49:23.121Z,65.37
2019-05-29T16:51:56.996Z,69.20
2019-05-29T16:54:31.166Z,64.53
2019-05-29T16:57:05.294Z,62.27
2019-05-29T16:59:39.973Z,63.35
2019-05-29T17:02:13.855Z,60.63
2019-05-29T17:04:48.025Z,57.08
2019-05-29T17:07:22.203Z,58.95
2019-05-29T17:09:56.292Z,53.02
2019-05-29T17:12:30.469Z,54.67
2019-05-29T17:15:04.443Z,53.02
2019-05-29T17:17:38.274Z,53.50
2019-05-29T17:20:12.887Z,53.92
2019-05-29T17:22:46.980Z,52.05
2019-05-29T17:25:25.485Z,54.98
2019-05-29T17:27:57.203Z,58.10
2019-05-29T17:30:34.651Z,51.95
2019-05-29T17:33:09.267Z,51.53
2019-05-29T17:35:43.551Z,52.23
2019-05-29T17:38:18.933Z,62.95
2019-05-29T17:40:53.491Z,58.00
2019-05-29T17:43:28.762Z,54.00
2019-05-29T17:46:03.329Z,54.83
2019-05-29T17:48:37.808Z,48.25
2019-05-29T17:51:12.106Z,49.83
2019-05-29T17:53:46.191Z,53.15
2019-05-29T17:56:31.764Z,60.28
2019-05-29T17:58:56.401Z,48.90
2019-05-29T18:01:31.082Z,47.27
2019-05-29T18:04:05.356Z,47.33
2019-05-29T18:06:39.489Z,57.60
2019-05-29T18:09:13.703Z,45.33
2019-05-29T18:11:48.094Z,43.33
2019-05-29T18:14:23.259Z,46.00
2019-05-29T18:16:57.570Z,42.05
2019-05-29T18:19:31.741Z,44.15
2019-05-29T18:22:06.362Z,45.58
2019-05-29T18:24:40.386Z,48.08
2019-05-29T18:27:14.739Z,45.73
2019-05-29T18:29:49.752Z,43.05
2019-05-29T18:32:24.481Z,47.25
2019-05-29T18:34:58.970Z,50.23
2019-05-29T18:37:33.156Z,47.83
2019-05-29T18:40:12.270Z,59.35
2019-05-29T18:42:43.595Z,68.17
2019-05-29T18:45:21.551Z,56.60
2019-05-29T18:47:54.586Z,58.85
2019-05-29T18:50:29.692Z,56.70
2019-05-29T18:53:03.748Z,50.63
2019-05-29T18:55:37.975Z,47.98
2019-05-29T18:58:12.344Z,57.88
2019-05-29T19:00:46.357Z,51.65
2019-05-29T19:03:21.374Z,51.70
2019-05-29T19:05:55.460Z,49.42
2019-05-29T19:08:29.783Z,53.85
2019-05-29T19:11:03.840Z,60.55
2019-05-29T19:13:37.927Z,68.92
2019-05-29T19:16:12.197Z,61.28
2019-05-29T19:18:46.329Z,52.95
2019-05-29T19:21:20.527Z,61.83
2019-05-29T19:23:54.481Z,57.38
2019-05-29T19:26:28.821Z,50.05
2019-05-29T19:29:03.224Z,54.38
2019-05-29T19:31:42.414Z,55.80
2019-05-29T19:34:14.680Z,56.20
2019-05-29T19:36:48.673Z,56.02
2019-05-29T19:39:23.726Z,50.45
2019-05-29T19:41:57.964Z,59.70
2019-05-29T19:44:32.444Z,50.00
2019-05-29T19:47:06.516Z,51.15
2019-05-29T19:49:40.656Z,52.90
2019-05-29T19:52:14.756Z,52.60
2019-05-29T19:54:48.794Z,58.83
2019-05-29T19:57:23.038Z,54.45
2019-05-29T19:59:56.966Z,48.28
2019-05-29T20:02:30.884Z,50.65
2019-05-29T20:05:04.969Z,53.13
2019-05-29T20:07:39.044Z,51.40
2019-05-29T20:10:13.355Z,49.88
2019-05-29T20:12:47.464Z,49.73
2019-05-29T20:15:21.812Z,45.70
2019-05-29T20:17:55.980Z,48.92
2019-05-29T20:20:30.401Z,50.08
2019-05-29T20:23:04.709Z,47.40
2019-05-29T20:25:39.893Z,54.77
2019-05-29T20:28:14.274Z,55.40
2019-05-29T20:30:48.640Z,51.10
2019-05-29T20:33:22.925Z,49.77
2019-05-29T20:35:57.263Z,51.13
2019-05-29T20:38:31.182Z,49.50
2019-05-29T20:41:05.414Z,48.30
2019-05-29T20:43:39.816Z,48.73
2019-05-29T20:46:13.905Z,49.90
2019-05-29T20:48:48.225Z,44.05
2019-05-29T20:51:22.443Z,45.85
2019-05-29T20:53:56.614Z,49.60
2019-05-29T20:56:31.671Z,42.45
2019-05-29T20:59:08.235Z,44.67
2019-05-29T21:01:46.933Z,42.83
2019-05-29T21:04:18.514Z,41.73
2019-05-29T21:06:52.765Z,42.00
2019-05-29T21:09:26.929Z,39.67
2019-05-29T21:12:01.510Z,40.10
2019-05-29T21:14:35.666Z,39.27
2019-05-29T21:17:09.911Z,38.40
2019-05-29T21:19:44.664Z,38.20
2019-05-29T21:22:18.984Z,37.03
2019-05-29T21:25:03.411Z,33.70
2019-05-29T21:27:28.836Z,37.42
2019-05-29T21:30:02.979Z,33.15
2019-05-29T21:32:37.810Z,32.40
2019-05-29T21:35:12.178Z,29.63
2019-05-29T21:37:46.696Z,33.48
2019-05-29T21:40:21.053Z,35.68
2019-05-29T21:42:54.890Z,28.92
2019-05-29T21:45:28.949Z,31.73
2019-05-29T21:48:03.215Z,29.35
2019-05-29T21:50:37.243Z,31.48
2019-05-29T21:53:12.746Z,31.02
2019-05-29T21:55:47.816Z,33.67
2019-05-29T21:58:21.856Z,27.52
2019-05-29T22:00:56.374Z,31.50
2019-05-29T22:03:31.844Z,29.35
2019-05-29T22:06:06.162Z,29.37
2019-05-29T22:08:40.800Z,25.32
2019-05-29T22:11:14.986Z,25.92
2019-05-29T22:13:50.229Z,25.77
2019-05-29T22:16:24.471Z,25.90
2019-05-29T22:19:02.499Z,26.57
2019-05-29T22:21:34.623Z,27.50
2019-05-29T22:24:08.864Z,27.73
2019-05-29T22:26:46.199Z,28.42
2019-05-29T22:29:20.178Z,24.70
2019-05-29T22:31:55.369Z,24.80
2019-05-29T22:34:29.473Z,26.40
2019-05-29T22:37:03.661Z,25.37
2019-05-29T22:39:37.945Z,25.23
2019-05-29T22:42:11.904Z,21.87
2019-05-29T22:44:46.941Z,23.32
2019-05-29T22:47:21.073Z,25.30
2019-05-29T22:49:55.748Z,26.73
2019-05-29T22:52:29.789Z,22.82
2019-05-29T22:55:04.140Z,22.90
2019-05-29T22:57:38.276Z,22.40
2019-05-29T23:00:13.442Z,21.77
2019-05-29T23:02:47.401Z,26.52
2019-05-29T23:05:21.608Z,23.73
2019-05-29T23:07:56.132Z,25.43
2019-05-29T23:10:31.344Z,25.12
2019-05-29T23:13:06.038Z,24.18
2019-05-29T23:15:40.495Z,26.80
2019-05-29T23:18:15.005Z,21.70
2019-05-29T23:20:48.976Z,26.05
2019-05-29T23:23:23.375Z,24.63
2019-05-29T23:25:58.599Z,23.45
2019-05-29T23:28:32.888Z,24.23
2019-05-29T23:31:07.047Z,24.15
2019-05-29T23:33:41.074Z,24.60
2019-05-29T23:36:16.632Z,27.48
2019-05-29T23:38:50.565Z,20.97
2019-05-29T23:41:24.771Z,21.12
2019-05-29T23:43:59.584Z,22.10
2019-05-29T23:46:33.854Z,21.85
2019-05-29T23:49:08.402Z,26.05
2019-05-29T23:51:42.572Z,23.15
2019-05-29T23:54:16.834Z,21.95
2019-05-29T23:56:50.898Z,25.72
2019-05-29T23:59:25.131Z,25.35
